Weather observations for the past three days for
VC Bird International Airport
Metric (Imperial)
Date Time (ast) Wind (kph) Vis. (km) Weather Sky Cond. Temperature (ºC) Relative Humidity Wind Chill (°C) Heat Index (°C) Pressure Precipitation (cm)
Air Dwpt 6 hour altimeter (cm) sea level (mb) 1 hr 3 hr 6 hr
Max. Min.
04 02:00 E 24 0.00 Showers in Vicinity FEW018 BKN036 25 22 83% 26 0 0.0
04 01:00 E 22 0.00 Showers in Vicinity SCT018 25 22 83% 26 0 0.0
04 00:00 E 15 0.00 Partly Cloudy SCT018 26 22 79% 28 0 0.0
03 23:00 E 13 0.00 Partly Cloudy SCT018 26 22 79% 28 0 0.0
03 22:00 E 13 0.00 A Few Clouds FEW020 26 22 79% 28 0 0.0
03 21:00 E 15 0.00 A Few Clouds FEW020 26 22 79% 28 0 0.0
03 19:00 E 13 0.00 Partly Cloudy SCT019 26 22 79% 28 0 0.0
03 18:00 E 15 0.00 Partly Cloudy SCT019 27 22 74% 29 0 0.0
03 17:00 E 13 0.00 Partly Cloudy SCT020 27 22 74% 29 0 0.0
03 16:00 E 22 0.00 A Few Clouds FEW022 28 21 66% 30 0 0.0
03 15:00 E 22 0.00 Partly Cloudy SCT022 29 21 62% 31 0 0.0
03 14:00 E 24 0.00 A Few Clouds FEW023 29 21 62% 31 0 0.0
03 13:00 E 22 0.00 A Few Clouds FEW023 29 22 66% 32 0 0.0
03 12:00 E 20 0.00 A Few Clouds FEW024 29 21 62% 31 0 0.0
03 11:00 E 20 G 39 0.00 A Few Clouds FEW023 29 22 66% 32 0 0.0
03 09:00 E 24 0.00 A Few Clouds FEW022 28 21 66% 30 0 0.0
03 08:00 E 19 0.00 Partly Cloudy SCT020 28 21 66% 30 0 0.0
03 07:00 E 19 0.00 A Few Clouds FEW020 27 21 70% 29 0 0.0
03 06:00 E 15 0.00 A Few Clouds FEW020 26 21 74% 27 0 0.0
03 05:00 E 13 0.00 A Few Clouds FEW020 26 21 74% 27 0 0.0
03 04:00 E 11 0.00 Partly Cloudy SCT020 26 21 74% 27 0 0.0
03 03:00 E 15 0.00 Partly Cloudy SCT020 26 21 74% 27 0 0.0
03 02:00 E 13 0.00 A Few Clouds FEW020 26 21 74% 27 0 0.0
03 01:00 E 15 0.00 Partly Cloudy SCT020 26 21 74% 27 0 0.0
03 00:00 E 15 0.00 Partly Cloudy SCT018 26 21 74% 27 0 0.0
02 23:00 E 15 0.00 A Few Clouds FEW018 26 21 74% 27 0 0.0
02 22:00 E 15 0.00 A Few Clouds FEW018 26 20 70% 27 0 0.0
02 21:00 E 13 0.00 A Few Clouds FEW018 26 21 74% 27 0 0.0
02 20:00 E 15 0.00 Partly Cloudy FEW018 SCT038 26 21 74% 27 0 0.0
02 19:00 E 13 0.00 A Few Clouds FEW019 26 20 70% 27 0 0.0
02 18:00 E 15 0.00 Partly Cloudy SCT019 27 22 74% 29 0 0.0
02 17:00 E 20 0.00 Showers in Vicinity SCT019 27 22 74% 29 0 0.0
02 16:00 E 19 0.00 Partly Cloudy SCT021 29 21 62% 31 0 0.0
02 15:00 E 20 0.00 A Few Clouds FEW021 28 21 66% 30 0 0.0
02 14:00 E 22 0.00 A Few Clouds FEW023 29 20 58% 31 0 0.0
02 13:00 E 20 0.00 A Few Clouds FEW022 29 20 58% 31 0 0.0
02 12:00 E 19 0.00 A Few Clouds FEW023 29 20 58% 31 0 0.0
02 11:00 E 20 0.00 A Few Clouds FEW023 29 21 62% 31 0 0.0
02 10:00 E 19 0.00 A Few Clouds FEW022 29 20 58% 31 0 0.0
02 09:00 E 19 0.00 Partly Cloudy SCT020 27 21 70% 29 0 0.0
02 08:00 E 15 0.00 Partly Cloudy SCT019 27 21 70% 29 0 0.0
02 07:00 SE 7 0.00 Partly Cloudy FEW019 SCT038 26 21 74% 27 0 0.0
02 06:00 Vrbl 4 0.00 Partly Cloudy SCT018 25 21 79% 26 0 0.0
02 05:00 SE 6 0.00 A Few Clouds FEW020 25 20 74% 26 0 0.0
02 03:00 E 13 0.00 A Few Clouds FEW020 25 20 74% 26 0 0.0
02 02:00 E 13 0.00 Partly Cloudy SCT020 26 21 74% 27 0 0.0
02 01:00 E 15 0.00 Partly Cloudy SCT020 26 21 74% 27 0 0.0
02 00:00 E 15 0.00 Partly Cloudy SCT020 26 21 74% 27 0 0.0
01 23:00 E 13 0.00 Partly Cloudy SCT020 26 22 79% 28 0 0.0
01 22:00 E 13 0.00 Partly Cloudy SCT020 26 21 74% 27 0 0.0
01 21:00 E 15 0.00 Mostly Cloudy SCT020 BKN038 26 21 74% 27 0 0.0
01 20:00 E 11 0.00 Partly Cloudy SCT020 SCT038 26 21 74% 27 0 0.0
01 19:00 E 9 0.00 Mostly Cloudy FEW020 BKN038 26 21 74% 27 0 0.0
01 18:00 E 11 0.00 Mostly Cloudy FEW018 BKN036 26 21 74% 27 0 0.0
01 17:00 E 15 0.00 Partly Cloudy SCT018 SCT038 27 21 70% 29 0 0.0
01 16:00 E 17 0.00 Partly Cloudy FEW020 SCT038 28 21 66% 30 0 0.0
01 15:00 E 19 0.00 Showers in Vicinity FEW020 SCT038 28 21 66% 30 0 0.0
01 14:00 E 17 0.00 Mostly Cloudy FEW020 BKN038 28 21 66% 30 0 0.0
01 13:00 E 20 0.00 Mostly Cloudy SCT018 BKN038 28 22 70% 31 0 0.0
01 12:00 E 17 0.00 Partly Cloudy SCT018 SCT038 28 22 70% 31 0 0.0
01 11:00 E 15 0.00 A Few Clouds FEW019 28 22 70% 31 0 0.0
01 10:00 E 13 0.00 A Few Clouds FEW018 28 21 66% 30 0 0.0
01 09:00 E 17 0.00 A Few Clouds FEW018 28 21 66% 30 0 0.0
01 08:00 E 11 0.00 A Few Clouds FEW018 26 21 74% 27 0 0.0
01 07:00 Vrbl 4 0.00 Partly Cloudy FEW018 SCT037 24 21 83% 24 0 0.0
01 06:00 Vrbl 2 0.00 A Few Clouds FEW018 23 21 89% 0 0.0
01 05:00 Vrbl 2 0.00 Mostly Cloudy BKN017 24 20 78% 24 0 0.0
01 04:00 Vrbl 4 0.00 A Few Clouds FEW018 24 21 83% 24 0 0.0
01 03:00 Vrbl 4 0.00 A Few Clouds FEW018 24 20 78% 24 0 0.0
Date Time (ast) Wind (kph) Vis. (km) Weather Sky Cond. Air Dwpt Max. Min. Relative Humidity Wind Chill (°C) Heat Index (°C) altimeter (cm) sea level (mb) 1 hr 3 hr 6 hr
6 hour
Temperature (ºC) Pressure Precipitation (cm)